createdAt,value
2023-01-05T00:12:11.644Z,11.30
2023-01-05T00:27:14.397Z,11.40
2023-01-05T00:42:17.520Z,11.40
2023-01-05T00:57:20.310Z,11.40
2023-01-05T01:12:23.015Z,11.50
2023-01-05T01:27:26.572Z,11.20
2023-01-05T01:42:30.513Z,11.30
2023-01-05T01:57:37.516Z,11.20
2023-01-05T02:13:07.313Z,11.30
2023-01-05T02:28:25.451Z,11.20
2023-01-05T02:43:57.106Z,11.20
2023-01-05T02:59:39.793Z,11.30
2023-01-05T03:16:07.231Z,11.30
2023-01-05T03:47:56.674Z,11.30
2023-01-05T04:03:20.358Z,11.30
2023-01-05T04:18:50.143Z,11.30
2023-01-05T04:34:06.582Z,11.20
2023-01-05T05:07:17.131Z,11.40
2023-01-05T05:22:37.806Z,11.30
2023-01-05T05:53:40.696Z,11.30
2023-01-05T06:09:24.383Z,11.30
2023-01-05T06:24:57.974Z,11.30
2023-01-05T06:40:47.619Z,11.30
2023-01-05T06:55:51.084Z,11.40
2023-01-05T07:10:54.204Z,11.40
2023-01-05T07:26:01.762Z,11.40
2023-01-05T07:41:20.978Z,11.30
2023-01-05T07:56:33.426Z,11.20
2023-01-05T08:11:36.486Z,11.20
2023-01-05T08:26:39.909Z,11.10
2023-01-05T08:41:42.763Z,11.20
2023-01-05T08:56:45.656Z,11.30
2023-01-05T09:11:48.452Z,11.20
2023-01-05T09:26:51.175Z,11.10
2023-01-05T09:42:00.381Z,11.20
2023-01-05T09:57:09.531Z,11.40
2023-01-05T10:12:47.839Z,11.20
2023-01-05T10:28:00.712Z,11.40
2023-01-05T10:43:18.094Z,11.60
2023-01-05T10:58:27.843Z,11.70
2023-01-05T11:13:37.733Z,11.80
2023-01-05T11:29:02.465Z,12.20
2023-01-05T11:44:06.177Z,12.30
2023-01-05T11:59:29.863Z,12.00
2023-01-05T12:14:41.375Z,12.00
2023-01-05T12:45:43.933Z,12.20
2023-01-05T13:00:48.532Z,12.00
2023-01-05T13:16:01.837Z,12.10
2023-01-05T13:31:36.393Z,12.20
2023-01-05T13:46:57.191Z,12.40
2023-01-05T14:02:00.962Z,12.30
2023-01-05T14:17:03.856Z,12.20
2023-01-05T14:32:08.071Z,12.30
2023-01-05T14:47:11.330Z,12.30
2023-01-05T15:02:26.269Z,12.20
2023-01-05T15:18:03.388Z,12.20
2023-01-05T15:33:23.008Z,11.90
2023-01-05T15:48:34.394Z,12.00
2023-01-05T16:03:39.286Z,12.30
2023-01-05T16:18:49.317Z,11.90
2023-01-05T16:34:25.775Z,13.00
2023-01-05T16:49:35.060Z,13.30
2023-01-05T17:04:38.743Z,13.70
2023-01-05T17:19:41.555Z,13.70
2023-01-05T17:34:46.408Z,13.20
2023-01-05T17:49:49.004Z,13.10
2023-01-05T18:04:52.316Z,13.10
2023-01-05T18:19:58.826Z,13.00
2023-01-05T18:35:04.414Z,13.20
2023-01-05T18:50:10.647Z,13.20
2023-01-05T19:05:13.668Z,13.30
2023-01-05T19:20:19.234Z,13.30
2023-01-05T19:35:23.967Z,13.30
2023-01-05T19:50:26.652Z,13.10
2023-01-05T20:05:29.355Z,13.00
2023-01-05T20:20:33.836Z,12.90
2023-01-05T20:35:40.250Z,12.70
2023-01-05T20:50:42.850Z,12.50
2023-01-05T21:05:45.499Z,12.60
2023-01-05T21:20:48.283Z,12.50
2023-01-05T21:35:56.097Z,12.60
2023-01-05T21:51:18.647Z,12.50
2023-01-05T22:06:21.267Z,12.80
2023-01-05T22:21:24.175Z,12.90
2023-01-05T22:36:30.587Z,12.00
2023-01-05T22:51:35.983Z,12.10
2023-01-05T23:06:40.180Z,12.50
2023-01-05T23:21:42.913Z,12.50
2023-01-05T23:36:45.664Z,12.30
2023-01-05T23:51:48.445Z,12.40
